Bahrain International Airport
OBBI : now visible

Airfield :











YOU CAN JOIN US ON...

 
LOGIN :

Register | Disclaimer

   EN    FR    IT 

 









Legend :    VFR   Marginal VFR   IFR   Intensive IFR   Very Intensive IFR
Visi :
Ceiling :
>= 8 km
>= 3000ft
5 to 8 km
1000 to 3000 ft
1500m to 5 km
500 to 1000 ft
800 to 1500m
200 to 500 ft
< 800m
< 200 ft
Symbols :   Thunderstorms  Fog  Heavy snow  Heavy precipitations  Wind > 20 kt







- Airport Elevation : 6 ft
- IATA code : BAH


OBBI - Bahrain International

CURRENT METAR :
  • 240200Z 33003KT 4000 HZ NSC 33/30 Q0996 NOSIG

EXPIRED METARs :
  • 240130Z 00000KT 5000 HZ SKC 33/30 Q0996 NOSIG
  • 240100Z VRB01KT 5000 HZ SKC 33/30 Q0996 NOSIG
  • 240030Z VRB02KT 5000 HZ SKC 33/30 Q0996 NOSIG
  • 240000Z VRB02KT 5000 HZ SKC 33/30 Q0996 NOSIG
  • 232330Z 21003KT 170V260 5000 HZ SKC 33/30 Q0995 NOSIG

TAF TAF OBBI
Valid from the 24 at 00:00 until the 25 at 06:00 UTC


232300Z 2400/2506 VRB05KT 7000 NSC
TEMPO 2400/2405 4000 HZ SCT010
PROB30
TEMPO 2401/2404 2000 BR BKN008
BECMG 2408/2410 07010KT
BECMG 2418/2420 VRB05KT 4000 HZ
PROB30
TEMPO 2501/2504 2000 BR BKN008
OBBB FIR / Asia



MET'MAP, your aeronautical weather chart ! - Copyright ORBIFLY December 2007 - Disclaimer

ORBIFLY MET'MAP TEAM :

Programming & Development : Alexandra Zaïnal
Concept & Development : Baudouin d'Aumeries
Co-Development & Prog : Marc-Olivier Méhu
Technical & hardware support : Manuel Goepfert

Contact : metmap@orbifly.com




SOURCES & CREDITS :

   NOAA       Earth
Advisory